Aviation Digital Data Service (ADDS)

Output produced by METARs form (0604 UTC 22 January 2018)
found at http://aviationweather.gov/adds/metars/
 
METAR text: KVCB 220600Z AUTO 14005KT 10SM BKN026 OVC033 10/06 A3034 RMK AO2 RAE0556 P0000 T01000061
Conditions at: KVCB (VACAVILLE , CA, US) observed 0600 UTC 22 January 2018
Temperature: 10.0°C (50°F)
Dewpoint: 6.1°C (43°F) [RH = 77%]
Pressure (altimeter): 30.34 inches Hg (1027.5 mb)
Winds: from the SE (140 degrees) at 6 MPH (5 knots; 2.6 m/s)
Visibility: 10 or more miles (16+ km)
Ceiling: 2600 feet AGL
Clouds: broken clouds at 2600 feet AGL
overcast cloud deck at 3300 feet AGL
Weather: automated observation with no human augmentation;
there may or may not be significant weather present at this time